Samuel Sestak

Olheiro - DAC Dunajska Streda
4 Abr 2028
Terça-feira
Processo

Personalidade

Adaptabilidade (5) Ambição (5) Controvérsia (12) Lealdade (11) Pressão (11) Profissionalismo (9) Espírito Esportivo (6) Temperamento (7)

Perfil

Estilo de Treinamento Democrático
Licença Continental B
Determinação 7
Gestão de Pessoas 11
Motivação 11
Disciplina 10
Satisfação no Trabalho
100%
Fadiga
0%
Função Olheiro
Salário 18.0K p/s
Contrato 14.03.2029

Desempenho

Comportamento Bom
Eficácia do Treinamento
28%
Desenvolvimento do Jogador
20%
Prevenção de Lesões
40%
Implementação Tática
30%

Eventos Recentes

Aniversário 14d atrás

Monitorando agora

133
Jogador Clube Status Habilidade Confiança Observado Última observação Último voto
Federico Coletta Benfica Ativo 113 / 100 40% 1 04.01.2028 -
Nicolas Sport Recife Perdido 102 / 110 40% 1 04.01.2028 -
Rio Ngumoha Brentford Ativo 136 / 138 40% 1 04.01.2028 -
Daniel Banjaqui Benfica Ativo 127 / 123 40% 2 01.01.2028 -
Facundo Balatti Penarol Ativo 101 / 115 40% 3 01.01.2028 -
Philip Elayo Azango Spartak Trnava Perdido 113 / 105 72% 1 01.01.2028 -
Gorka Gorosabel Real Sociedad Ativo 104 / 126 40% 1 01.01.2028 -
Theo Avery Peterborough United Ativo 85 / 93 40% 2 31.08.2027 -
Rafael Vargas Cortulua Ativo 80 / 106 40% 1 31.08.2027 -
Onuorah Onyedika Kun Khalifat Ativo 84 / 74 40% 1 31.08.2027 -
Román Colo All Boys Ativo 83 / 95 40% 1 31.08.2027 -
Owen Asemota Aston Villa Ativo 81 / 101 40% 1 30.08.2027 -
Shea Connor Zulte Waregem Ativo 86 / 110 40% 1 30.08.2027 -
Alex Húdok AS Trencin Ativo 94 / 96 40% 1 30.08.2027 -
Aleksi Piispa VPS Ativo 101 / 93 40% 2 28.08.2027 -
Sabino González Sarmiento Ativo 91 / 95 40% 2 28.08.2027 -
Tiago Glattli Penarol Ativo 86 / 85 40% 1 27.08.2027 -
Gerardo Díaz San Martín SJ Ativo 94 / 101 40% 2 26.08.2027 -
Woody Williamson Crotone Ativo 105 / 100 40% 1 26.08.2027 -
Edwin Vargas Deportivo Tachira Ativo 83 / 75 40% 2 25.08.2027 -
Francisco Ventre Huracán Ativo 86 / 90 40% 1 25.08.2027 -
Casper Lindner Millwall Ativo 81 / 95 40% 1 25.08.2027 -
Idris Ajiya Rivers United Ativo 91 / 84 40% 1 24.08.2027 -
Ruben Ramos LA Galaxy Ativo 96 / 108 40% 1 24.08.2027 -
Tomás Bais Lanús Ativo 97 / 89 40% 2 23.08.2027 -
Renato Ardissono San Lorenzo Ativo 89 / 107 40% 2 23.08.2027 -
Galo Avendaño Aldosivi Ativo 79 / 99 40% 1 23.08.2027 -
Gabriel Gomes Valledupar Ativo 88 / 104 40% 4 21.08.2027 -
Jeremías Robledo Acosta Newell's Old Boys Ativo 96 / 89 40% 2 21.08.2027 -
Damián Constanzo River Plate Ativo 98 / 107 40% 1 20.08.2027 -
Santiago López Toluca Ativo 94 / 96 40% 1 20.08.2027 -
Diego Opazo Santiago Wanderers Ativo 84 / 97 40% 1 20.08.2027 -
Jakub Jokl MSK Zilina Ativo 106 / 120 40% 2 18.08.2027 -
Otto Stange Hamburger SV Ativo 127 / 135 40% 2 17.08.2027 -
Alexis Devesa Aldosivi Ativo 83 / 99 40% 1 17.08.2027 -
Mateo Alcoba Albion Ativo 82 / 96 40% 1 17.08.2027 -
Gennaro Grassi Samtredia Ativo 77 / 73 40% 1 17.08.2027 -
Omelian Wiliam Chubak RoPS Ativo 77 / 79 40% 2 16.08.2027 -
Jeifer Nontoa Banfield Ativo 84 / 84 40% 1 16.08.2027 -
Luka Kolar Rudar Velenje Ativo 113 / 118 40% 3 14.08.2027 -
Giovanni Stellato Guidonia Montecelio Ativo 99 / 95 40% 4 14.08.2027 -
Lautaro Vera Platense Ativo 92 / 112 40% 1 14.08.2027 -
Maximiliano Campos Alania Ativo 94 / 100 40% 2 13.08.2027 -
Ayoub Akabou Ceuta Ativo 105 / 99 40% 2 13.08.2027 -
Tadej Bonaca Isloch Ativo 82 / 97 40% 1 12.08.2027 -
Luke Campbell Newport County Ativo 101 / 109 40% 1 12.08.2027 -
Jerónimo Gutiérrez Independiente Rivadavia Ativo 80 / 88 40% 1 12.08.2027 -
Levente Szondi Tulevik Ativo 77 / 68 40% 2 11.08.2027 -
Tomás Báez Boca Juniors Ativo 83 / 93 40% 1 09.08.2027 -
Iwan Morgan Grimsby Town Ativo 105 / 117 40% 1 07.08.2027 -
Pedro Ramallo Albion Ativo 84 / 83 40% 2 03.08.2027 -
Paulo da Costa Penarol Ativo 84 / 106 40% 1 03.08.2027 -
Lorenzo Bonifacio Südtirol Ativo 82 / 88 40% 1 02.08.2027 -
Alan Coria Villarreal Ativo 100 / 107 40% 1 02.08.2027 -
Tommaso Ravaglioli AlbinoLeffe Ativo 83 / 106 40% 1 02.08.2027 -
Sammy Henia-Kamau Cheltenham Town Ativo 70 / 69 40% 1 02.08.2027 -
Edmund Baidoo Borussia Dortmund Ativo 136 / 140 40% 2 01.08.2027 -
Anas Alaoui Lecco Ativo 110 / 110 40% 1 01.08.2027 -
Sheldon Dinesh Stockport County Ativo 94 / 100 40% 1 01.08.2027 -
Ahmed Khaled Paralimni Ativo 99 / 97 40% 2 30.07.2027 -
Joseph Abah Nasarawa United Ativo 79 / 94 40% 1 30.07.2027 -
Kevin Martínez Danubio Ativo 105 / 98 40% 1 30.07.2027 -
Caleb Ansen Alcione Milano Ativo 93 / 95 40% 1 30.07.2027 -
Juan Manuel Centurión Independiente Ativo 88 / 95 40% 1 30.07.2027 -
Martín Díaz Lanús Ativo 90 / 88 40% 2 29.07.2027 -
Martín D'Aurizio Huracán Ativo 87 / 100 40% 1 29.07.2027 -
Gabriel Salguero Talleres Ativo 73 / 74 40% 1 27.07.2027 -
Nicolás Casa Gimnasia y Esgrima Ativo 87 / 85 40% 1 26.07.2027 -
Dylan Martínez River Plate Ativo 100 / 94 40% 1 26.07.2027 -
David Mojica Union Magdalena Ativo 89 / 92 40% 1 25.07.2027 -
Simone Kosijer Triestina Ativo 111 / 116 40% 3 24.07.2027 -
Ollie Scarles West Ham United Ativo 133 / 130 40% 1 24.07.2027 -
Thamsanqa Phiri Free State Stars Ativo 70 / 88 40% 3 22.07.2027 -
Gideon Manaseh Ikorodu City Ativo 90 / 93 40% 1 22.07.2027 -
Makar Suschiy Bumprom Gomel Ativo 76 / 76 40% 1 22.07.2027 -
Mattia Mannini Juve Stabia Ativo 120 / 124 40% 5 20.07.2027 -
Ibrahim Sabiu Bendel Insurance Ativo 79 / 94 40% 3 20.07.2027 -
Fuzy Taylor Medeama Ativo 87 / 81 40% 4 19.07.2027 -
Jeremias Vazquez Gimnasia y Tiro Ativo 92 / 95 40% 1 19.07.2027 -
Tomás Silva Lanús Ativo 78 / 93 40% 1 19.07.2027 -
Sebastian Jensen Luzern Ativo 93 / 104 40% 1 19.07.2027 -
Ismaël Baouf Cambuur Ativo 126 / 132 40% 4 17.07.2027 -
Lucan Louw AS Police Ativo 77 / 82 40% 1 17.07.2027 -
Joe Knight Stevenage Ativo 101 / 114 40% 3 15.07.2027 -
Bahmed Deuff FC Metz Ativo 128 / 126 40% 2 15.07.2027 -
Miguel Figueiredo Benfica Ativo 109 / 117 40% 2 13.07.2027 -
Jenson Jones Peterborough United Ativo 91 / 90 40% 3 12.07.2027 -
Gady Beyuku Modena Ativo 117 / 133 40% 5 12.07.2027 -
Claudio Martey Pianese Ativo 79 / 84 40% 2 11.07.2027 -
Elie N'Gatta Sochaux Ativo 96 / 94 40% 1 10.07.2027 -
Lucas Mbamba Westerlo Ativo 89 / 88 40% 2 07.07.2027 -
Pedro Vian Seewald Arzignano Ativo 87 / 107 40% 3 04.07.2027 -
Alessandro Ventre Vis Pesaro Ativo 88 / 86 40% 2 04.07.2027 -
Keagan Kekana Black Aces Ativo 86 / 78 40% 1 04.07.2027 -
Alessio Insignito Spezia Ativo 100 / 100 40% 3 02.07.2027 -
Mattia Puzone Siracusa Ativo 91 / 111 40% 4 02.07.2027 -
Alexis Vossah Toulouse FC Ativo 127 / 136 40% 2 29.06.2027 -
Jack Shorrock Port Vale Ativo 98 / 107 40% 1 29.06.2027 -
Martim Cunha Porto Ativo 97 / 108 40% 3 28.06.2027 -
Daniel Kelly West Ham United Ativo 124 / 128 40% 1 25.06.2027 -
Tadeáš Hájovský AS Trencin Ativo 105 / 111 40% 1 22.06.2027 -
Victor Corona Santos Laguna Ativo 106 / 114 40% 1 22.06.2027 -
Alexandr Metsiev Sochi Ativo 76 / 82 40% 1 21.06.2027 -
Viktor Pekarik FK Senica Ativo 117 / 128 40% 3 20.06.2027 Observar
Andrej Sestak FK Senica Ativo 113 / 114 40% 1 20.06.2027 Mais informações
Bernardo Lima Porto Ativo 100 / 101 40% 1 20.06.2027 -
Sergey Chernov Zenit Ativo 81 / 88 40% 1 18.06.2027 -
Fabián Correa Barranquilla Ativo 91 / 78 40% 1 17.06.2027 -
Joaquín Fernández River Plate Ativo 79 / 79 40% 1 17.06.2027 -
Juan Álvarez Argentinos Juniors Ativo 86 / 90 40% 1 17.06.2027 -
Lucas Thomas Luton Town Ativo 84 / 89 40% 1 17.06.2027 -
Ally Salum Omar Kariobangi Sharks Ativo 75 / 71 40% 1 16.06.2027 -
Chimobi Igwilo Rangers International Ativo 97 / 99 40% 1 15.06.2027 -
Chinonso Chibueze Harrogate Town Ativo 81 / 77 40% 1 15.06.2027 -
Teo Rodríguez Pagano San Lorenzo Ativo 114 / 128 40% 1 11.06.2027 -
Pele Smith Fleetwood Town Ativo 73 / 85 40% 1 08.06.2027 -
Yury Petin Chaika Ativo 83 / 83 40% 1 07.06.2027 -
Leonardo Mendicino Bari Ativo 120 / 114 40% 1 06.06.2027 -
Aytor Herrera Atletico Venezuela Ativo 70 / 80 40% 1 05.06.2027 -
Óscar Contreras Monterrey Ativo 78 / 93 40% 1 02.06.2027 -
Paulo Cardoso Sporting CP Ativo 103 / 99 40% 2 31.01.2027 -
Alexandr Andreev Rodina M Ativo 75 / 74 40% 1 31.01.2027 -
Tumelo Shai Kuban Holding Ativo 74 / 75 40% 1 30.01.2027 -
Maxim Radchenko Rostov Ativo 75 / 89 40% 1 28.01.2027 -
Matvey Ivanov Zenit Ativo 78 / 77 40% 1 27.01.2027 -
Lucas Bersce Nueva Chicago Ativo 94 / 107 40% 2 24.01.2027 -
Hugo Campos Real Sociedad Ativo 76 / 89 40% 1 24.01.2027 -
José Quevedo Neftchi Ativo 79 / 79 40% 1 23.01.2027 -
Ramiro Buratti River Plate Ativo 77 / 111 40% 1 20.01.2027 -
Hernán Sanabria Barracas Central Ativo 89 / 75 40% 1 20.01.2027 -
Alejandro Rincon Atletico Venezuela Ativo 101 / 98 40% 1 19.01.2027 -
Aleksandar Stanisavljević Spartak Myjava Ativo 93 / 93 30% 1 / 1m 19.08.2026 -
Felipe Pontoni Talleres Ativo 88 / 84 40% 1 17.08.2026 -